createdAt,value
2022-12-28T00:04:40.361Z,6.98
2022-12-28T00:09:41.718Z,6.88
2022-12-28T00:14:43.049Z,6.85
2022-12-28T00:19:47.573Z,6.71
2022-12-28T00:24:48.870Z,6.56
2022-12-28T00:29:50.196Z,6.48
2022-12-28T00:34:51.536Z,6.43
2022-12-28T00:39:52.920Z,6.43
2022-12-28T00:44:54.294Z,6.44
2022-12-28T00:49:55.595Z,6.46
2022-12-28T00:54:56.887Z,6.52
2022-12-28T00:59:58.205Z,6.50
2022-12-28T01:04:59.528Z,6.41
2022-12-28T01:10:00.845Z,6.37
2022-12-28T01:15:06.500Z,6.32
2022-12-28T01:20:08.676Z,6.26
2022-12-28T01:25:10.111Z,6.24
2022-12-28T01:30:13.827Z,6.22
2022-12-28T01:35:15.194Z,6.20
2022-12-28T01:40:16.672Z,6.10
2022-12-28T01:45:20.856Z,6.07
2022-12-28T01:50:27.546Z,6.17
2022-12-28T01:55:33.607Z,6.20
2022-12-28T02:00:35.726Z,6.22
2022-12-28T02:05:39.932Z,6.34
2022-12-28T02:10:45.725Z,6.34
2022-12-28T02:15:48.201Z,6.35
2022-12-28T02:21:20.895Z,6.37
2022-12-28T02:26:38.413Z,6.37
2022-12-28T02:31:50.827Z,6.44
2022-12-28T02:37:05.705Z,6.42
2022-12-28T02:42:09.752Z,6.42
2022-12-28T02:47:35.373Z,6.44
2022-12-28T02:53:33.739Z,6.47
2022-12-28T02:58:53.536Z,6.52
2022-12-28T03:04:17.966Z,6.52
2022-12-28T03:09:35.822Z,6.57
2022-12-28T03:14:45.477Z,6.53
2022-12-28T03:20:12.699Z,6.51
2022-12-28T03:25:37.002Z,6.51
2022-12-28T03:31:01.230Z,6.52
2022-12-28T03:36:10.373Z,6.57
2022-12-28T03:41:16.104Z,6.61
2022-12-28T03:46:29.349Z,6.65
2022-12-28T03:51:32.502Z,6.64
2022-12-28T03:56:33.813Z,6.62
2022-12-28T04:01:35.166Z,6.70
2022-12-28T04:06:37.089Z,6.73
2022-12-28T04:11:38.397Z,6.80
2022-12-28T04:16:39.796Z,7.00
2022-12-28T04:21:41.161Z,6.93
2022-12-28T04:26:42.474Z,7.02
2022-12-28T04:31:43.850Z,7.08
2022-12-28T04:36:45.282Z,7.14
2022-12-28T04:41:46.631Z,7.17
2022-12-28T04:46:48.092Z,7.17
2022-12-28T04:51:49.425Z,7.14
2022-12-28T04:56:50.719Z,7.12
2022-12-28T05:01:52.132Z,7.17
2022-12-28T05:06:53.492Z,7.22
2022-12-28T05:11:54.820Z,7.27
2022-12-28T05:16:56.116Z,7.25
2022-12-28T05:21:57.439Z,7.18
2022-12-28T05:26:58.764Z,7.08
2022-12-28T05:32:00.093Z,7.18
2022-12-28T05:37:01.472Z,7.39
2022-12-28T05:42:02.913Z,7.50
2022-12-28T05:47:04.321Z,7.59
2022-12-28T05:52:05.665Z,7.68
2022-12-28T05:57:06.983Z,7.74
2022-12-28T06:02:08.411Z,7.77
2022-12-28T06:07:09.903Z,7.72
2022-12-28T06:12:11.240Z,7.70
2022-12-28T06:17:12.643Z,7.79
2022-12-28T06:22:13.959Z,7.77
2022-12-28T06:27:15.311Z,7.77
2022-12-28T06:32:16.623Z,7.77
2022-12-28T06:37:17.944Z,7.82
2022-12-28T06:42:19.265Z,7.82
2022-12-28T06:47:20.593Z,7.82
2022-12-28T06:52:22.125Z,7.82
2022-12-28T06:57:23.461Z,7.86
2022-12-28T07:02:25.015Z,7.87
2022-12-28T07:07:26.529Z,7.94
2022-12-28T07:12:27.844Z,7.99
2022-12-28T07:17:29.149Z,8.06
2022-12-28T07:22:30.496Z,8.13
2022-12-28T07:27:31.804Z,8.17
2022-12-28T07:32:36.892Z,8.23
2022-12-28T07:37:38.301Z,8.35
2022-12-28T07:42:39.641Z,8.39
2022-12-28T07:47:40.993Z,8.51
2022-12-28T07:52:42.301Z,8.69
2022-12-28T07:57:43.621Z,8.71
2022-12-28T08:02:44.941Z,8.85
2022-12-28T08:07:46.289Z,8.89
2022-12-28T08:12:47.627Z,8.93
2022-12-28T08:17:48.960Z,8.90
2022-12-28T08:22:50.329Z,8.83
2022-12-28T08:27:51.778Z,8.90
2022-12-28T08:32:53.082Z,8.93
2022-12-28T08:37:55.645Z,8.92
2022-12-28T08:42:58.976Z,8.91
2022-12-28T08:48:00.350Z,9.06
2022-12-28T08:53:01.756Z,9.03
2022-12-28T08:58:03.083Z,9.04
2022-12-28T09:03:04.485Z,9.10
2022-12-28T09:08:06.298Z,9.00
2022-12-28T09:13:07.855Z,8.99
2022-12-28T09:18:09.209Z,9.00
2022-12-28T09:23:10.548Z,9.07
2022-12-28T09:28:12.027Z,9.14
2022-12-28T09:33:31.952Z,9.18
2022-12-28T09:38:33.295Z,9.39
2022-12-28T09:43:34.688Z,9.53
2022-12-28T09:48:36.212Z,9.64
2022-12-28T09:53:37.755Z,9.69
2022-12-28T09:58:47.636Z,9.74
2022-12-28T10:03:49.629Z,9.86
2022-12-28T10:08:53.942Z,10.05
2022-12-28T10:14:00.444Z,10.17
2022-12-28T10:19:01.979Z,10.23
2022-12-28T10:24:31.416Z,10.34
2022-12-28T10:29:27.976Z,10.34
2022-12-28T10:34:34.564Z,10.38
2022-12-28T10:39:37.179Z,10.41
2022-12-28T10:44:40.567Z,10.42
2022-12-28T10:50:10.380Z,10.56
2022-12-28T10:55:33.406Z,10.52
2022-12-28T11:00:35.272Z,10.55
2022-12-28T11:05:37.256Z,10.56
2022-12-28T11:10:40.248Z,10.62
2022-12-28T11:15:41.622Z,10.62
2022-12-28T11:20:45.967Z,10.66
2022-12-28T11:25:47.860Z,10.65
2022-12-28T11:30:51.764Z,10.71
2022-12-28T11:35:59.516Z,10.81
2022-12-28T11:41:01.148Z,10.65
2022-12-28T11:46:04.507Z,10.71
2022-12-28T11:51:18.453Z,10.80
2022-12-28T11:56:25.340Z,10.80
2022-12-28T12:01:29.844Z,10.79
2022-12-28T12:06:43.318Z,10.95
2022-12-28T12:11:46.287Z,11.08
2022-12-28T12:16:54.126Z,11.03
2022-12-28T12:22:17.473Z,11.01
2022-12-28T12:27:36.445Z,11.16
2022-12-28T12:32:48.441Z,11.24
2022-12-28T12:37:56.564Z,11.20
2022-12-28T12:43:29.357Z,11.26
2022-12-28T12:49:08.057Z,11.40
2022-12-28T12:54:24.445Z,11.30
2022-12-28T13:04:46.212Z,11.15
2022-12-28T13:10:01.123Z,11.04
2022-12-28T13:15:10.777Z,10.95
2022-12-28T13:20:21.713Z,10.85
2022-12-28T13:25:29.315Z,10.76
2022-12-28T13:30:31.084Z,10.79
2022-12-28T13:35:35.092Z,10.84
2022-12-28T13:40:48.093Z,10.92
2022-12-28T13:45:57.496Z,10.95
2022-12-28T13:50:59.357Z,11.02
2022-12-28T13:56:05.953Z,11.04
2022-12-28T14:01:13.384Z,11.12
2022-12-28T14:06:16.442Z,11.15
2022-12-28T14:11:18.284Z,11.23
2022-12-28T14:16:20.020Z,11.27
2022-12-28T14:21:40.975Z,11.29
2022-12-28T14:26:51.351Z,11.24
2022-12-28T14:32:01.630Z,11.26
2022-12-28T14:37:03.139Z,11.34
2022-12-28T14:42:16.619Z,11.31
2022-12-28T14:47:44.586Z,11.28
2022-12-28T14:52:48.540Z,11.35
2022-12-28T14:57:55.441Z,11.44
2022-12-28T15:03:11.575Z,11.45
2022-12-28T15:08:13.095Z,11.49
2022-12-28T15:13:16.348Z,11.44
2022-12-28T15:18:18.873Z,11.50
2022-12-28T15:23:20.980Z,11.49
2022-12-28T15:28:24.944Z,11.47
2022-12-28T15:33:26.275Z,11.56
2022-12-28T15:38:27.876Z,11.38
2022-12-28T15:43:29.432Z,11.36
2022-12-28T15:48:31.382Z,11.36
2022-12-28T15:53:32.726Z,11.29
2022-12-28T15:58:34.113Z,11.30
2022-12-28T16:03:35.560Z,11.27
2022-12-28T16:08:36.997Z,11.30
2022-12-28T16:13:38.402Z,11.32
2022-12-28T16:18:39.937Z,11.36
2022-12-28T16:23:43.137Z,11.35
2022-12-28T16:28:44.717Z,11.34
2022-12-28T16:33:46.361Z,11.27
2022-12-28T16:38:50.618Z,11.30
2022-12-28T16:43:52.430Z,11.32
2022-12-28T16:48:54.200Z,11.37
2022-12-28T16:53:59.240Z,11.35
2022-12-28T16:59:01.276Z,11.41
2022-12-28T17:04:04.395Z,11.39
2022-12-28T17:09:09.801Z,11.36
2022-12-28T17:14:17.437Z,11.42
2022-12-28T17:19:26.703Z,11.49
2022-12-28T17:24:30.756Z,11.46
2022-12-28T17:29:32.870Z,11.36
2022-12-28T17:34:34.645Z,11.38
2022-12-28T17:39:40.628Z,11.37
2022-12-28T17:44:42.180Z,11.38
2022-12-28T17:49:43.518Z,11.35
2022-12-28T17:54:44.824Z,11.37
2022-12-28T17:59:46.137Z,11.40
2022-12-28T18:04:48.038Z,11.41
2022-12-28T18:09:49.353Z,11.48
2022-12-28T18:14:50.771Z,11.43
2022-12-28T18:19:53.407Z,11.43
2022-12-28T18:24:54.823Z,11.46
2022-12-28T18:29:56.142Z,11.44
2022-12-28T18:34:57.473Z,11.42
2022-12-28T18:39:58.822Z,11.45
2022-12-28T18:45:00.415Z,11.46
2022-12-28T18:50:03.117Z,11.45
2022-12-28T18:55:05.520Z,11.47
2022-12-28T19:00:11.190Z,11.44
2022-12-28T19:05:15.528Z,11.48
2022-12-28T19:10:17.671Z,11.51
2022-12-28T19:15:22.239Z,11.47
2022-12-28T19:20:24.291Z,11.52
2022-12-28T19:25:26.023Z,11.57
2022-12-28T19:30:27.666Z,11.61
2022-12-28T19:35:29.548Z,11.60
2022-12-28T19:40:31.143Z,11.55
2022-12-28T19:45:32.896Z,11.53
2022-12-28T19:50:38.359Z,11.50
2022-12-28T19:55:42.986Z,11.50
2022-12-28T20:00:44.762Z,11.51
2022-12-28T20:05:46.738Z,11.55
2022-12-28T20:10:57.636Z,11.58
2022-12-28T20:16:00.122Z,11.60
2022-12-28T20:21:22.041Z,11.62
2022-12-28T20:26:28.456Z,11.64
2022-12-28T20:31:33.629Z,11.62
2022-12-28T20:36:35.246Z,11.59
2022-12-28T20:41:56.664Z,11.56
2022-12-28T20:46:59.998Z,11.50
2022-12-28T20:52:01.697Z,11.45
2022-12-28T20:57:03.417Z,11.44
2022-12-28T21:02:05.141Z,11.41
2022-12-28T21:07:11.497Z,11.38
2022-12-28T21:12:13.279Z,11.37
2022-12-28T21:17:15.082Z,11.36
2022-12-28T21:22:25.629Z,11.18
2022-12-28T21:27:28.619Z,11.09
2022-12-28T21:32:29.975Z,11.07
2022-12-28T21:37:34.098Z,10.94
2022-12-28T21:42:36.305Z,10.79
2022-12-28T21:47:37.883Z,10.80
2022-12-28T21:52:39.266Z,10.75
2022-12-28T21:57:40.588Z,10.76
2022-12-28T22:03:00.517Z,10.73
2022-12-28T22:08:21.939Z,10.70
2022-12-28T22:13:23.280Z,10.78
2022-12-28T22:19:00.393Z,10.70
2022-12-28T22:23:48.816Z,10.63
2022-12-28T22:28:50.340Z,10.60
2022-12-28T22:33:54.984Z,10.62
2022-12-28T22:38:56.409Z,10.69
2022-12-28T22:43:57.839Z,10.78
2022-12-28T22:48:59.276Z,10.87
2022-12-28T22:54:00.992Z,10.90
2022-12-28T22:59:04.914Z,10.91
2022-12-28T23:04:07.783Z,10.97
2022-12-28T23:09:09.302Z,11.04
2022-12-28T23:14:35.441Z,11.15
2022-12-28T23:20:00.315Z,11.25
2022-12-28T23:25:20.810Z,11.40
2022-12-28T23:30:22.573Z,11.54
2022-12-28T23:35:26.191Z,11.66
2022-12-28T23:40:27.722Z,11.75
2022-12-28T23:45:29.278Z,11.87
2022-12-28T23:50:30.840Z,11.96
2022-12-28T23:55:32.188Z,12.10
